createdAt,value
2023-01-30T00:02:02.290Z,7.80
2023-01-30T00:07:07.953Z,7.13
2023-01-30T00:09:41.216Z,7.72
2023-01-30T00:12:15.585Z,6.53
2023-01-30T00:14:48.443Z,7.05
2023-01-30T00:17:21.513Z,7.20
2023-01-30T00:19:54.216Z,7.38
2023-01-30T00:22:27.325Z,6.55
2023-01-30T00:27:34.309Z,6.13
2023-01-30T00:30:12.999Z,7.30
2023-01-30T00:32:45.898Z,6.13
2023-01-30T00:37:51.373Z,6.53
2023-01-30T00:40:24.258Z,7.18
2023-01-30T00:46:07.350Z,5.85
2023-01-30T00:48:40.363Z,6.40
2023-01-30T00:51:13.306Z,7.07
2023-01-30T00:56:20.079Z,7.55
2023-01-30T00:58:54.326Z,6.70
2023-01-30T01:01:27.119Z,6.10
2023-01-30T01:04:00.636Z,7.55
2023-01-30T01:06:33.755Z,5.82
2023-01-30T01:09:06.996Z,6.15
2023-01-30T01:11:39.888Z,5.72
2023-01-30T01:14:14.031Z,6.05
2023-01-30T01:16:47.313Z,7.53
2023-01-30T01:19:20.304Z,5.07
2023-01-30T01:21:53.202Z,5.05
2023-01-30T01:24:25.933Z,5.85
2023-01-30T01:26:59.633Z,6.32
2023-01-30T01:29:33.994Z,6.03
2023-01-30T01:32:06.897Z,6.13
2023-01-30T01:37:12.886Z,5.18
2023-01-30T01:39:59.941Z,5.35
2023-01-30T01:42:37.193Z,5.82
2023-01-30T01:45:21.481Z,5.40
2023-01-30T01:48:01.849Z,6.07
2023-01-30T01:50:42.154Z,4.80
2023-01-30T01:53:18.827Z,5.70
2023-01-30T01:55:55.148Z,4.78
2023-01-30T01:58:32.574Z,5.40
2023-01-30T02:01:08.152Z,4.40
2023-01-30T02:03:45.532Z,4.40
2023-01-30T02:06:19.926Z,4.63
2023-01-30T02:08:56.955Z,5.22
2023-01-30T02:11:34.548Z,4.68
2023-01-30T02:14:09.280Z,4.53
2023-01-30T02:16:46.800Z,5.95
2023-01-30T02:19:26.938Z,5.15
2023-01-30T02:22:17.998Z,5.13
2023-01-30T02:25:25.012Z,3.95
2023-01-30T02:28:29.769Z,5.65
2023-01-30T02:31:19.735Z,5.18
2023-01-30T02:34:01.892Z,4.60
2023-01-30T02:36:47.761Z,5.28
2023-01-30T02:39:30.934Z,4.82
2023-01-30T02:42:13.045Z,4.70
2023-01-30T02:44:54.504Z,4.57
2023-01-30T02:47:34.776Z,4.55
2023-01-30T02:50:21.686Z,4.30
2023-01-30T02:52:55.307Z,5.03
2023-01-30T02:55:30.240Z,4.70
2023-01-30T02:58:05.729Z,4.53
2023-01-30T03:01:00.139Z,4.45
2023-01-30T03:03:50.983Z,4.97
2023-01-30T03:06:39.675Z,5.53
2023-01-30T03:09:17.674Z,5.40
2023-01-30T03:12:00.272Z,5.70
2023-01-30T03:14:40.844Z,6.53
2023-01-30T03:17:15.682Z,4.40
2023-01-30T03:19:50.099Z,5.82
2023-01-30T03:22:23.800Z,5.22
2023-01-30T03:24:56.641Z,5.57
2023-01-30T03:27:29.820Z,5.50
2023-01-30T03:30:03.186Z,4.70
2023-01-30T03:32:36.072Z,5.13
2023-01-30T03:35:11.696Z,4.78
2023-01-30T03:37:45.065Z,6.10
2023-01-30T03:40:20.253Z,5.28
2023-01-30T03:42:53.174Z,5.43
2023-01-30T03:45:26.691Z,5.68
2023-01-30T03:50:33.644Z,5.50
2023-01-30T03:53:06.951Z,6.53
2023-01-30T03:55:40.510Z,5.65
2023-01-30T04:00:46.172Z,5.75
2023-01-30T04:05:52.951Z,5.53
2023-01-30T04:08:26.061Z,5.72
2023-01-30T04:10:59.120Z,6.18
2023-01-30T04:13:31.927Z,5.55
2023-01-30T04:16:19.739Z,5.22
2023-01-30T04:19:11.307Z,5.88
2023-01-30T04:21:46.394Z,5.20
2023-01-30T04:24:19.373Z,4.70
2023-01-30T04:29:25.189Z,4.40
2023-01-30T04:31:59.391Z,4.70
2023-01-30T04:34:36.085Z,4.68
2023-01-30T04:39:44.779Z,4.35
2023-01-30T04:42:17.987Z,4.43
2023-01-30T04:45:09.082Z,3.67
2023-01-30T04:47:44.311Z,3.88
2023-01-30T04:50:17.579Z,4.35
2023-01-30T04:55:25.201Z,4.20
2023-01-30T04:57:58.978Z,3.45
2023-01-30T05:00:31.884Z,3.60
2023-01-30T05:03:07.222Z,4.35
2023-01-30T05:05:40.018Z,4.82
2023-01-30T05:08:16.659Z,4.32
2023-01-30T05:10:49.581Z,3.63
2023-01-30T05:15:55.326Z,5.65
2023-01-30T05:21:08.906Z,3.75
2023-01-30T05:23:43.237Z,3.90
2023-01-30T05:26:16.809Z,4.60
2023-01-30T05:28:52.964Z,4.30
2023-01-30T05:31:26.394Z,4.28
2023-01-30T05:33:59.371Z,4.82
2023-01-30T05:39:06.192Z,3.67
2023-01-30T05:41:39.120Z,5.25
2023-01-30T05:49:18.520Z,7.10
2023-01-30T05:51:51.741Z,5.28
2023-01-30T05:54:26.045Z,4.28
2023-01-30T05:56:58.803Z,7.68
2023-01-30T06:02:04.594Z,5.60
2023-01-30T06:04:37.472Z,6.40
2023-01-30T06:07:10.458Z,4.95
2023-01-30T06:12:17.656Z,4.75
2023-01-30T06:14:50.508Z,4.63
2023-01-30T06:17:23.436Z,5.57
2023-01-30T06:22:29.287Z,6.30
2023-01-30T06:25:03.843Z,5.35
2023-01-30T06:27:36.903Z,5.22
2023-01-30T06:35:16.758Z,5.55
2023-01-30T06:37:49.952Z,5.25
2023-01-30T06:40:27.156Z,5.82
2023-01-30T06:43:00.341Z,4.88
2023-01-30T06:45:34.910Z,5.80
2023-01-30T06:48:08.374Z,6.80
2023-01-30T06:50:41.552Z,4.20
2023-01-30T06:53:14.683Z,4.93
2023-01-30T06:55:49.174Z,3.67
2023-01-30T06:58:25.463Z,5.78
2023-01-30T07:01:02.097Z,4.88
2023-01-30T07:03:35.295Z,4.10
2023-01-30T07:06:08.483Z,6.10
2023-01-30T07:08:41.874Z,4.70
2023-01-30T07:11:16.551Z,4.45
2023-01-30T07:13:49.870Z,4.60
2023-01-30T07:16:28.782Z,4.90
2023-01-30T07:19:03.164Z,3.88
2023-01-30T07:21:36.068Z,4.53
2023-01-30T07:24:10.943Z,4.88
2023-01-30T07:26:45.234Z,5.78
2023-01-30T07:29:18.272Z,4.47
2023-01-30T07:34:25.306Z,5.47
2023-01-30T07:36:58.355Z,4.72
2023-01-30T07:39:31.290Z,4.18
2023-01-30T07:44:38.912Z,5.50
2023-01-30T07:49:44.397Z,4.10
2023-01-30T07:52:17.134Z,4.30
2023-01-30T07:54:49.871Z,4.88
2023-01-30T07:57:24.061Z,4.65
2023-01-30T07:59:56.926Z,4.28
2023-01-30T08:02:32.733Z,5.18
2023-01-30T08:05:06.693Z,4.03
2023-01-30T08:07:39.663Z,4.75
2023-01-30T08:10:14.289Z,4.38
2023-01-30T08:12:51.215Z,6.55
2023-01-30T08:15:24.076Z,4.40
2023-01-30T08:17:57.992Z,5.72
2023-01-30T08:20:30.946Z,5.38
2023-01-30T08:23:03.764Z,4.20
2023-01-30T08:25:38.232Z,4.30
2023-01-30T08:28:12.519Z,4.70
2023-01-30T08:30:47.412Z,5.28
2023-01-30T08:33:20.511Z,4.45
2023-01-30T08:38:26.199Z,5.97
2023-01-30T08:41:00.918Z,4.80
2023-01-30T08:43:37.427Z,3.72
2023-01-30T08:46:10.310Z,4.50
2023-01-30T08:48:49.859Z,5.00
2023-01-30T08:51:23.227Z,4.65
2023-01-30T08:53:56.128Z,5.03
2023-01-30T08:56:29.075Z,4.95
2023-01-30T08:59:03.326Z,5.28
2023-01-30T09:01:38.194Z,5.10
2023-01-30T09:04:11.252Z,3.83
2023-01-30T09:09:19.865Z,4.57
2023-01-30T09:11:53.636Z,4.40
2023-01-30T09:14:29.744Z,4.72
2023-01-30T09:17:02.745Z,4.88
2023-01-30T09:22:10.290Z,4.63
2023-01-30T09:24:43.287Z,6.53
2023-01-30T09:29:50.459Z,4.63
2023-01-30T09:32:23.423Z,4.57
2023-01-30T09:37:29.277Z,3.65
2023-01-30T09:42:51.801Z,3.30
2023-01-30T09:45:44.629Z,4.72
2023-01-30T09:48:25.571Z,4.85
2023-01-30T09:51:19.604Z,4.47
2023-01-30T09:54:16.271Z,6.13
2023-01-30T09:56:56.657Z,6.20
2023-01-30T09:59:36.466Z,4.38
2023-01-30T10:02:28.433Z,6.00
2023-01-30T10:05:03.037Z,4.72
2023-01-30T10:07:48.740Z,4.30
2023-01-30T10:10:30.490Z,3.70
2023-01-30T10:13:15.604Z,4.90
2023-01-30T10:15:56.071Z,3.95
2023-01-30T10:18:46.917Z,5.07
2023-01-30T10:21:31.120Z,5.72
2023-01-30T10:24:20.151Z,5.10
2023-01-30T10:26:54.054Z,5.35
2023-01-30T10:29:32.741Z,5.38
2023-01-30T10:32:11.255Z,4.53
2023-01-30T10:34:50.517Z,5.28
2023-01-30T10:37:27.709Z,5.93
2023-01-30T10:40:06.937Z,5.75
2023-01-30T10:42:46.485Z,5.60
2023-01-30T10:45:24.447Z,4.88
2023-01-30T10:48:19.912Z,6.43
2023-01-30T10:51:13.718Z,5.13
2023-01-30T10:53:51.681Z,4.68
2023-01-30T10:56:35.336Z,5.03
2023-01-30T10:59:22.336Z,5.32
2023-01-30T11:02:03.922Z,4.88
2023-01-30T11:04:43.648Z,5.13
2023-01-30T11:07:18.121Z,5.15
2023-01-30T11:09:51.164Z,5.65
2023-01-30T11:12:26.441Z,5.40
2023-01-30T11:15:01.312Z,5.68
2023-01-30T11:17:36.826Z,5.32
2023-01-30T11:20:15.819Z,5.68
2023-01-30T11:22:52.546Z,4.78
2023-01-30T11:25:25.455Z,6.13
2023-01-30T11:28:03.406Z,6.07
2023-01-30T11:30:37.743Z,6.75
2023-01-30T11:33:15.487Z,5.68
2023-01-30T11:35:55.791Z,6.15
2023-01-30T11:38:33.392Z,7.07
2023-01-30T11:41:22.966Z,6.28
2023-01-30T11:44:01.955Z,5.55
2023-01-30T11:46:37.889Z,5.45
2023-01-30T11:49:46.729Z,6.55
2023-01-30T11:52:09.416Z,5.45
2023-01-30T11:54:46.180Z,6.47
2023-01-30T11:57:21.220Z,6.40
2023-01-30T11:59:57.788Z,6.40
2023-01-30T12:02:36.339Z,6.15
2023-01-30T12:05:25.070Z,4.60
2023-01-30T12:08:22.415Z,4.93
2023-01-30T12:11:02.405Z,6.20
2023-01-30T12:13:39.366Z,5.43
2023-01-30T12:16:20.324Z,6.15
2023-01-30T12:19:00.663Z,6.35
2023-01-30T12:21:45.206Z,6.05
2023-01-30T12:24:27.117Z,5.07
2023-01-30T12:27:06.080Z,5.30
2023-01-30T12:29:59.478Z,6.00
2023-01-30T12:35:16.763Z,5.32
2023-01-30T12:38:04.680Z,6.90
2023-01-30T12:40:51.858Z,6.13
2023-01-30T12:43:40.695Z,5.82
2023-01-30T12:46:34.687Z,6.65
2023-01-30T12:49:36.482Z,7.28
2023-01-30T12:52:28.118Z,6.72
2023-01-30T12:55:12.224Z,6.00
2023-01-30T12:57:51.602Z,5.50
2023-01-30T13:00:45.209Z,6.35
2023-01-30T13:03:27.956Z,5.93
2023-01-30T13:06:10.077Z,5.95
2023-01-30T13:09:09.463Z,6.10
2023-01-30T13:11:51.631Z,6.70
2023-01-30T13:14:33.593Z,5.65
2023-01-30T13:17:23.227Z,6.32
2023-01-30T13:20:01.824Z,6.80
2023-01-30T13:22:42.378Z,6.55
2023-01-30T13:25:23.922Z,6.28
2023-01-30T13:28:03.467Z,7.15
2023-01-30T13:30:37.963Z,7.13
2023-01-30T13:33:16.103Z,7.25
2023-01-30T13:35:53.875Z,7.45
2023-01-30T13:38:28.229Z,6.57
2023-01-30T13:41:03.750Z,6.88
2023-01-30T13:43:39.659Z,7.28
2023-01-30T13:46:20.288Z,6.55
2023-01-30T13:49:06.901Z,5.30
2023-01-30T13:51:48.025Z,4.95
2023-01-30T13:54:32.848Z,6.97
2023-01-30T13:57:19.490Z,7.13
2023-01-30T14:00:34.262Z,6.85
2023-01-30T14:03:32.133Z,5.22
2023-01-30T14:06:16.006Z,5.05
2023-01-30T14:08:54.981Z,6.22
2023-01-30T14:11:33.995Z,7.22
2023-01-30T14:14:24.466Z,6.05
2023-01-30T14:16:59.279Z,8.10
2023-01-30T14:19:39.565Z,6.03
2023-01-30T14:22:26.663Z,7.07
2023-01-30T14:25:41.232Z,6.18
2023-01-30T14:28:47.909Z,7.57
2023-01-30T14:31:54.996Z,7.35
2023-01-30T14:35:17.000Z,5.25
2023-01-30T14:38:16.381Z,5.65
2023-01-30T14:41:17.356Z,6.72
2023-01-30T14:43:53.635Z,6.68
2023-01-30T14:46:54.759Z,7.15
2023-01-30T14:49:33.043Z,5.50
2023-01-30T14:52:06.633Z,6.78
2023-01-30T14:57:23.272Z,4.97
2023-01-30T15:00:14.868Z,5.75
2023-01-30T15:02:52.331Z,6.93
2023-01-30T15:05:32.982Z,6.28
2023-01-30T15:08:10.282Z,5.95
2023-01-30T15:11:06.311Z,5.95
2023-01-30T15:13:48.177Z,7.30
2023-01-30T15:16:37.557Z,6.68
2023-01-30T15:19:24.844Z,6.72
2023-01-30T15:22:11.472Z,5.63
2023-01-30T15:25:12.719Z,7.60
2023-01-30T15:28:01.387Z,8.73
2023-01-30T15:30:49.661Z,7.32
2023-01-30T15:33:31.008Z,6.10
2023-01-30T15:36:19.988Z,7.35
2023-01-30T15:39:01.500Z,8.02
2023-01-30T15:41:42.607Z,8.30
2023-01-30T15:44:40.652Z,6.55
2023-01-30T15:47:26.379Z,7.50
2023-01-30T15:50:02.971Z,6.15
2023-01-30T15:52:44.962Z,7.60
2023-01-30T15:55:20.908Z,6.53
2023-01-30T15:57:57.727Z,5.90
2023-01-30T16:00:36.289Z,6.30
2023-01-30T16:03:14.443Z,7.32
2023-01-30T16:05:48.617Z,6.35
2023-01-30T16:08:24.705Z,7.00
2023-01-30T16:10:58.068Z,7.35
2023-01-30T16:13:33.284Z,6.80
2023-01-30T16:16:12.866Z,8.15
2023-01-30T16:18:50.516Z,7.65
2023-01-30T16:21:29.056Z,6.88
2023-01-30T16:24:04.911Z,6.25
2023-01-30T16:26:42.136Z,6.82
2023-01-30T16:29:38.960Z,7.25
2023-01-30T16:32:15.385Z,5.55
2023-01-30T16:34:48.239Z,6.43
2023-01-30T16:40:06.007Z,6.70
2023-01-30T16:42:41.404Z,7.10
2023-01-30T16:45:50.504Z,7.13
2023-01-30T16:48:31.933Z,8.60
2023-01-30T16:51:21.370Z,7.13
2023-01-30T16:53:59.387Z,6.25
2023-01-30T16:56:35.756Z,8.55
2023-01-30T16:59:19.916Z,6.50
2023-01-30T17:01:55.275Z,7.22
2023-01-30T17:04:32.093Z,6.25
2023-01-30T17:07:05.862Z,7.57
2023-01-30T17:09:43.008Z,7.78
2023-01-30T17:12:37.056Z,6.50
2023-01-30T17:15:33.035Z,6.43
2023-01-30T17:18:07.447Z,7.10
2023-01-30T17:20:47.669Z,6.20
2023-01-30T17:23:22.782Z,5.78
2023-01-30T17:25:55.556Z,6.80
2023-01-30T17:28:28.310Z,5.30
2023-01-30T17:33:34.099Z,5.32
2023-01-30T17:36:19.260Z,6.18
2023-01-30T17:38:52.723Z,6.78
2023-01-30T17:41:29.229Z,5.38
2023-01-30T17:44:02.189Z,6.38
2023-01-30T17:49:15.693Z,5.45
2023-01-30T17:51:50.647Z,6.15
2023-01-30T17:54:30.185Z,6.57
2023-01-30T17:57:05.847Z,4.60
2023-01-30T17:59:38.964Z,4.93
2023-01-30T18:02:11.829Z,6.40
2023-01-30T18:04:44.596Z,6.32
2023-01-30T18:07:19.947Z,6.22
2023-01-30T18:09:52.792Z,6.10
2023-01-30T18:12:25.679Z,4.68
2023-01-30T18:15:00.058Z,5.55
2023-01-30T18:17:33.473Z,6.53
2023-01-30T18:20:06.896Z,5.78
2023-01-30T18:22:41.410Z,6.22
2023-01-30T18:25:14.880Z,5.07
2023-01-30T18:27:48.456Z,5.72
2023-01-30T18:30:24.401Z,4.55
2023-01-30T18:32:57.451Z,5.55
2023-01-30T18:38:04.316Z,5.60
2023-01-30T18:40:38.833Z,6.22
2023-01-30T18:43:11.614Z,4.82
2023-01-30T18:45:44.601Z,5.13
2023-01-30T18:50:49.977Z,3.77
2023-01-30T18:53:24.115Z,4.95
2023-01-30T18:55:56.886Z,4.32
2023-01-30T18:58:31.129Z,5.57
2023-01-30T19:01:10.366Z,5.45
2023-01-30T19:03:43.900Z,6.20
2023-01-30T19:06:19.232Z,5.30
2023-01-30T19:08:54.027Z,5.05
2023-01-30T19:11:44.548Z,6.35
2023-01-30T19:14:17.444Z,4.63
2023-01-30T19:16:51.245Z,6.93
2023-01-30T19:19:25.029Z,5.05
2023-01-30T19:21:58.114Z,5.28
2023-01-30T19:27:07.524Z,5.13
2023-01-30T19:29:41.386Z,5.50
2023-01-30T19:32:14.071Z,3.95
2023-01-30T19:34:47.254Z,5.35
2023-01-30T19:37:21.185Z,5.82
2023-01-30T19:42:27.901Z,4.85
2023-01-30T19:45:01.074Z,4.78
2023-01-30T19:47:34.357Z,5.30
2023-01-30T19:50:08.658Z,3.78
2023-01-30T19:52:42.018Z,3.90
2023-01-30T19:55:22.249Z,4.70
2023-01-30T19:58:03.006Z,5.50
2023-01-30T20:01:01.612Z,5.57
2023-01-30T20:03:44.193Z,4.03
2023-01-30T20:06:21.037Z,4.37
2023-01-30T20:08:58.256Z,3.78
2023-01-30T20:11:35.110Z,4.32
2023-01-30T20:14:11.862Z,4.00
2023-01-30T20:16:45.467Z,3.45
2023-01-30T20:19:21.759Z,4.38
2023-01-30T20:21:56.110Z,4.70
2023-01-30T20:24:29.164Z,4.55
2023-01-30T20:27:04.132Z,4.43
2023-01-30T20:29:37.200Z,3.47
2023-01-30T20:32:10.162Z,4.22
2023-01-30T20:34:43.127Z,3.53
2023-01-30T20:39:51.066Z,3.58
2023-01-30T20:42:25.527Z,4.72
2023-01-30T20:45:03.467Z,2.72
2023-01-30T20:47:46.504Z,3.55
2023-01-30T20:50:19.890Z,2.78
2023-01-30T20:52:52.914Z,3.60
2023-01-30T20:58:00.047Z,3.05
2023-01-30T21:00:35.055Z,3.10
2023-01-30T21:03:07.986Z,3.22
2023-01-30T21:05:40.699Z,4.18
2023-01-30T21:08:13.519Z,2.95
2023-01-30T21:13:21.736Z,2.95
2023-01-30T21:16:01.939Z,2.95
2023-01-30T21:18:36.971Z,4.22
2023-01-30T21:21:15.727Z,2.72
2023-01-30T21:23:49.592Z,2.70
2023-01-30T21:26:31.878Z,2.78
2023-01-30T21:29:08.400Z,2.90
2023-01-30T21:31:41.770Z,2.35
2023-01-30T21:34:15.093Z,2.95
2023-01-30T21:37:07.810Z,2.92
2023-01-30T21:39:58.890Z,2.95
2023-01-30T21:42:49.476Z,2.40
2023-01-30T21:45:23.604Z,2.85
2023-01-30T21:47:56.833Z,2.80
2023-01-30T21:50:29.585Z,2.45
2023-01-30T21:53:02.782Z,2.42
2023-01-30T21:55:35.703Z,2.60
2023-01-30T21:58:08.537Z,3.00
2023-01-30T22:00:42.593Z,3.05
2023-01-30T22:03:17.744Z,2.92
2023-01-30T22:08:25.667Z,2.33
2023-01-30T22:11:06.295Z,2.75
2023-01-30T22:13:41.040Z,2.53
2023-01-30T22:16:17.406Z,2.97
2023-01-30T22:18:53.402Z,2.70
2023-01-30T22:21:28.065Z,2.30
2023-01-30T22:24:03.059Z,2.03
2023-01-30T22:26:36.700Z,2.17
2023-01-30T22:29:10.558Z,2.55
2023-01-30T22:31:45.172Z,1.98
2023-01-30T22:34:18.136Z,2.05
2023-01-30T22:36:51.832Z,2.45
2023-01-30T22:39:25.091Z,2.20
2023-01-30T22:44:30.593Z,1.45
2023-01-30T22:59:08.080Z,2.53
2023-01-30T23:11:08.202Z,2.30
2023-01-30T23:13:42.432Z,2.55
